Time;durP1;ratioP1;P1;durP2;ratioP2;P2;SDS_P1;SDS_P2;PMS_P1;PMS_P2;Temp;Humidity;BMP_temperature;BMP_pressure;BME280_temperature;BME280_humidity;BME280_pressure;Samples;Min_cycle;Max_cycle;Signal;HPM_P1;HPM_P2
2022/04/28 00:01:42;;;;;;;29.20;13.25;;;;;;;;;;5070784;28;20271;-66
2022/04/28 00:04:08;;;;;;;26.17;13.40;;;;;;;;;;5070799;28;20346;-65
2022/04/28 00:06:33;;;;;;;29.15;14.20;;;;;;;;;;5069578;28;20499;-66
2022/04/28 00:08:58;;;;;;;25.57;13.60;;;;;;;;;;5068907;28;20035;-66
2022/04/28 00:11:24;;;;;;;28.77;14.32;;;;;;;;;;5071296;28;20332;-65
2022/04/28 00:13:49;;;;;;;22.63;12.93;;;;;;;;;;5074781;28;20040;-66
2022/04/28 00:16:15;;;;;;;24.77;13.97;;;;;;;;;;5072247;28;20016;-65
2022/04/28 00:18:40;;;;;;;24.10;13.98;;;;;;;;;;5069553;28;20785;-65
2022/04/28 00:21:05;;;;;;;24.90;14.00;;;;;;;;;;5069122;28;20397;-65
2022/04/28 00:23:31;;;;;;;27.00;14.90;;;;;;;;;;5069911;28;20349;-65
2022/04/28 00:25:56;;;;;;;25.10;15.35;;;;;;;;;;5069365;28;20690;-66
2022/04/28 00:28:21;;;;;;;27.52;14.27;;;;;;;;;;5070277;28;20397;-65
2022/04/28 00:30:46;;;;;;;28.30;14.90;;;;;;;;;;5070917;28;20012;-65
2022/04/28 00:33:11;;;;;;;26.15;14.30;;;;;;;;;;5069075;28;20016;-65
2022/04/28 00:35:38;;;;;;;29.98;14.32;;;;;;;;;;5069922;28;20488;-65
2022/04/28 00:38:03;;;;;;;30.48;15.50;;;;;;;;;;5068752;28;20032;-65
2022/04/28 00:40:29;;;;;;;28.05;13.48;;;;;;;;;;5070176;28;20017;-66
2022/04/28 00:43:18;;;;;;;33.47;15.03;;;;;;;;;;5071446;28;20464;-65
2022/04/28 00:45:39;;;;;;;31.13;14.05;;;;;;;;;;5067102;28;20282;-65
2022/04/28 00:50:48;;;;;;;27.67;12.45;;;;;;;;;;5070358;28;20281;-65
2022/04/28 00:53:13;;;;;;;27.23;14.02;;;;;;;;;;5069003;28;20024;-66
2022/04/28 00:55:40;;;;;;;29.88;14.55;;;;;;;;;;5065821;28;20056;-65
2022/04/28 00:58:05;;;;;;;30.48;13.57;;;;;;;;;;5064188;28;20055;-65
2022/04/28 01:00:30;;;;;;;23.40;14.68;;;;;;;;;;5069947;28;20025;-65
2022/04/28 01:02:56;;;;;;;28.75;14.25;;;;;;;;;;5069672;28;20016;-66
2022/04/28 01:05:21;;;;;;;27.65;15.25;;;;;;;;;;5069414;28;20013;-65
2022/04/28 01:07:46;;;;;;;30.73;14.10;;;;;;;;;;5068130;28;20026;-65
2022/04/28 01:10:11;;;;;;;30.80;14.88;;;;;;;;;;5069094;28;20279;-66
2022/04/28 01:12:37;;;;;;;29.67;14.15;;;;;;;;;;5067317;28;20023;-65
2022/04/28 01:15:03;;;;;;;25.13;14.10;;;;;;;;;;5069154;28;20026;-65
2022/04/28 01:17:28;;;;;;;28.77;14.00;;;;;;;;;;5068698;28;20449;-65
2022/04/28 01:19:53;;;;;;;25.67;14.30;;;;;;;;;;5070289;28;20484;-65
2022/04/28 01:22:18;;;;;;;29.40;15.33;;;;;;;;;;5067286;28;20270;-66
2022/04/28 01:24:43;;;;;;;29.48;14.50;;;;;;;;;;5070161;28;20745;-65
2022/04/28 01:27:08;;;;;;;32.22;15.45;;;;;;;;;;5065978;28;20580;-65
2022/04/28 01:29:34;;;;;;;27.08;14.50;;;;;;;;;;5069417;28;20065;-65
2022/04/28 01:32:00;;;;;;;26.55;13.77;;;;;;;;;;5050428;28;20022;-65
2022/04/28 01:34:25;;;;;;;26.35;14.98;;;;;;;;;;5069236;28;20028;-65
2022/04/28 01:36:50;;;;;;;27.25;14.50;;;;;;;;;;5066488;28;20023;-65
2022/04/28 01:39:16;;;;;;;23.13;13.03;;;;;;;;;;5069884;28;20117;-65
2022/04/28 01:41:42;;;;;;;27.00;14.32;;;;;;;;;;5068158;28;20297;-65
2022/04/28 01:44:07;;;;;;;26.05;14.40;;;;;;;;;;5068745;28;20017;-65
2022/04/28 01:46:32;;;;;;;45.33;14.80;;;;;;;;;;5069258;28;20039;-65
2022/04/28 01:48:58;;;;;;;25.47;13.03;;;;;;;;;;5068410;28;20283;-65
2022/04/28 01:56:51;;;;;;;22.33;13.18;;;;;;;;;;5068191;28;20028;-65
2022/04/28 01:59:16;;;;;;;27.43;13.43;;;;;;;;;;5068751;28;20024;-65
2022/04/28 02:01:41;;;;;;;24.50;13.00;;;;;;;;;;5067875;28;20832;-65
2022/04/28 02:04:06;;;;;;;25.33;13.95;;;;;;;;;;5068518;28;20294;-65
2022/04/28 02:06:31;;;;;;;25.52;13.50;;;;;;;;;;5068623;28;20017;-65
2022/04/28 02:08:57;;;;;;;25.80;13.70;;;;;;;;;;5069145;28;20495;-65
2022/04/28 02:11:22;;;;;;;21.50;12.38;;;;;;;;;;5067719;28;20024;-65
2022/04/28 02:13:47;;;;;;;27.63;14.02;;;;;;;;;;5050733;28;20549;-65
2022/04/28 02:16:12;;;;;;;21.93;13.13;;;;;;;;;;5067835;28;20052;-66
2022/04/28 02:18:37;;;;;;;35.42;14.30;;;;;;;;;;5069024;28;20266;-65
2022/04/28 02:21:03;;;;;;;29.95;13.77;;;;;;;;;;5068661;28;20032;-65
2022/04/28 02:23:28;;;;;;;24.02;13.55;;;;;;;;;;5068069;28;20550;-65
2022/04/28 02:25:53;;;;;;;27.60;15.02;;;;;;;;;;5068110;28;20098;-65
2022/04/28 02:28:18;;;;;;;27.90;14.43;;;;;;;;;;5068578;28;20048;-65
2022/04/28 02:30:43;;;;;;;30.27;14.10;;;;;;;;;;5067538;28;20021;-65
2022/04/28 02:33:09;;;;;;;29.13;15.00;;;;;;;;;;5067865;28;20275;-65
2022/04/28 02:35:34;;;;;;;31.88;14.48;;;;;;;;;;5069301;28;20070;-65
2022/04/28 02:37:59;;;;;;;31.20;13.90;;;;;;;;;;5068177;28;20130;-65
2022/04/28 02:40:24;;;;;;;37.33;14.73;;;;;;;;;;5070264;28;20174;-65
2022/04/28 02:42:49;;;;;;;28.70;15.33;;;;;;;;;;5068343;28;20089;-65
2022/04/28 02:45:14;;;;;;;24.38;14.25;;;;;;;;;;5067561;28;20281;-65
2022/04/28 02:47:40;;;;;;;26.83;14.07;;;;;;;;;;5068408;28;20047;-65
2022/04/28 02:50:05;;;;;;;27.83;14.38;;;;;;;;;;5067830;28;20016;-65
2022/04/28 02:52:31;;;;;;;27.20;13.27;;;;;;;;;;5068148;28;20101;-65
2022/04/28 02:54:56;;;;;;;23.40;14.05;;;;;;;;;;5068288;28;20388;-65
2022/04/28 02:57:21;;;;;;;26.50;15.10;;;;;;;;;;5049461;28;20021;-65
2022/04/28 02:59:46;;;;;;;26.67;13.90;;;;;;;;;;5068312;28;20782;-65
2022/04/28 03:02:12;;;;;;;23.90;13.70;;;;;;;;;;5068265;28;20307;-65
2022/04/28 03:04:37;;;;;;;25.83;13.65;;;;;;;;;;5068227;28;20631;-65
2022/04/28 03:12:29;;;;;;;27.35;13.90;;;;;;;;;;5067075;28;21761;-65
2022/04/28 03:14:55;;;;;;;26.07;14.23;;;;;;;;;;5068795;28;20099;-65
2022/04/28 03:17:20;;;;;;;30.03;14.57;;;;;;;;;;5067675;28;20324;-65
2022/04/28 03:19:45;;;;;;;28.13;13.83;;;;;;;;;;5067903;28;20782;-65
2022/04/28 03:22:10;;;;;;;24.15;13.20;;;;;;;;;;5068800;28;20461;-65
2022/04/28 03:24:35;;;;;;;36.40;14.87;;;;;;;;;;5065289;28;20066;-65
2022/04/28 03:27:01;;;;;;;27.70;14.50;;;;;;;;;;5068790;28;20286;-65
2022/04/28 03:29:26;;;;;;;29.48;14.02;;;;;;;;;;5067337;28;20048;-65
2022/04/28 03:31:51;;;;;;;25.02;13.85;;;;;;;;;;5068632;28;20091;-66
2022/04/28 03:34:18;;;;;;;25.53;14.07;;;;;;;;;;5050227;28;20046;-65
2022/04/28 03:36:52;;;;;;;29.60;13.95;;;;;;;;;;5067115;28;20263;-65
2022/04/28 03:39:18;;;;;;;33.55;15.20;;;;;;;;;;5071532;28;20465;-65
2022/04/28 03:41:43;;;;;;;26.33;13.45;;;;;;;;;;5069452;28;20036;-65
2022/04/28 03:44:09;;;;;;;26.00;13.68;;;;;;;;;;5070768;28;20642;-65
2022/04/28 03:46:34;;;;;;;23.90;12.82;;;;;;;;;;5070870;28;20020;-65
2022/04/28 03:48:59;;;;;;;24.90;13.30;;;;;;;;;;5071499;28;20499;-65
2022/04/28 03:51:25;;;;;;;27.25;13.80;;;;;;;;;;5057475;28;20019;-65
2022/04/28 03:53:50;;;;;;;28.35;12.38;;;;;;;;;;5068357;28;20031;-65
2022/04/28 03:56:16;;;;;;;25.27;13.30;;;;;;;;;;5070224;28;20024;-65
2022/04/28 03:58:41;;;;;;;24.88;13.68;;;;;;;;;;5070107;28;20476;-65
2022/04/28 04:01:06;;;;;;;23.40;12.90;;;;;;;;;;5070378;28;20029;-65
2022/04/28 04:03:31;;;;;;;27.80;13.70;;;;;;;;;;5070702;28;20026;-65
2022/04/28 04:05:58;;;;;;;25.33;13.02;;;;;;;;;;5071037;28;20048;-65
2022/04/28 04:08:23;;;;;;;27.23;12.75;;;;;;;;;;5070033;28;20389;-65
2022/04/28 04:10:48;;;;;;;25.23;13.27;;;;;;;;;;5071048;28;20024;-66
2022/04/28 04:13:13;;;;;;;28.80;12.70;;;;;;;;;;5069619;28;20820;-65
2022/04/28 04:15:38;;;;;;;29.30;13.25;;;;;;;;;;5071197;28;20013;-65
2022/04/28 04:18:04;;;;;;;25.83;13.68;;;;;;;;;;5071463;28;20094;-65
2022/04/28 04:20:29;;;;;;;34.67;14.77;;;;;;;;;;5072207;28;20013;-65
2022/04/28 04:22:54;;;;;;;25.27;13.70;;;;;;;;;;5070507;28;20380;-65
2022/04/28 04:25:22;;;;;;;27.15;12.52;;;;;;;;;;5071370;28;20024;-65
2022/04/28 04:27:48;;;;;;;27.50;12.50;;;;;;;;;;5070272;28;20021;-65
2022/04/28 04:32:57;;;;;;;27.60;12.05;;;;;;;;;;5070244;28;20082;-65
2022/04/28 04:35:23;;;;;;;26.42;12.50;;;;;;;;;;5067932;28;20689;-66
2022/04/28 04:37:49;;;;;;;24.70;12.90;;;;;;;;;;5066470;28;20020;-66
2022/04/28 04:40:14;;;;;;;22.50;13.07;;;;;;;;;;5071124;28;20473;-66
2022/04/28 04:42:39;;;;;;;27.40;13.48;;;;;;;;;;5070258;28;20021;-66
2022/04/28 04:45:08;;;;;;;26.77;12.48;;;;;;;;;;5069437;28;20051;-66
2022/04/28 04:47:34;;;;;;;32.85;14.10;;;;;;;;;;5069467;28;20527;-65
2022/04/28 04:49:59;;;;;;;28.92;14.95;;;;;;;;;;5052280;28;20017;-66
2022/04/28 04:52:24;;;;;;;27.23;13.13;;;;;;;;;;5070663;28;20515;-66
2022/04/28 04:54:49;;;;;;;24.30;12.15;;;;;;;;;;5068678;28;20278;-66
2022/04/28 04:57:14;;;;;;;25.80;12.93;;;;;;;;;;5068133;28;20070;-66
2022/04/28 04:59:40;;;;;;;26.48;12.52;;;;;;;;;;5066157;28;20099;-65
2022/04/28 05:02:05;;;;;;;29.27;13.53;;;;;;;;;;5069978;28;20204;-64
2022/04/28 05:04:30;;;;;;;27.40;14.27;;;;;;;;;;5069613;28;20278;-64
2022/04/28 05:06:55;;;;;;;24.95;13.48;;;;;;;;;;5070162;28;20275;-66
2022/04/28 05:09:20;;;;;;;32.17;13.77;;;;;;;;;;5068581;28;20020;-65
2022/04/28 05:11:46;;;;;;;25.83;14.60;;;;;;;;;;5066599;28;20021;-66
2022/04/28 05:14:11;;;;;;;23.40;13.10;;;;;;;;;;5068752;28;20099;-65
2022/04/28 05:16:36;;;;;;;35.15;14.35;;;;;;;;;;5068440;28;20023;-65
2022/04/28 05:19:01;;;;;;;29.83;14.00;;;;;;;;;;5069148;28;20162;-64
2022/04/28 05:21:26;;;;;;;26.38;13.75;;;;;;;;;;5069845;28;20099;-66
2022/04/28 05:23:52;;;;;;;27.65;13.88;;;;;;;;;;5070351;28;20030;-66
2022/04/28 05:26:17;;;;;;;28.13;14.30;;;;;;;;;;5068910;28;20040;-66
2022/04/28 05:28:43;;;;;;;23.98;13.45;;;;;;;;;;5067656;28;20286;-65
2022/04/28 05:31:08;;;;;;;27.40;13.07;;;;;;;;;;5068061;28;20020;-66
2022/04/28 05:33:33;;;;;;;26.35;13.95;;;;;;;;;;5068803;28;20129;-65
2022/04/28 05:35:59;;;;;;;29.83;13.85;;;;;;;;;;5069005;28;20438;-65
2022/04/28 05:38:24;;;;;;;26.35;13.40;;;;;;;;;;5068636;28;20032;-66
2022/04/28 05:40:49;;;;;;;31.58;13.80;;;;;;;;;;5067241;28;20031;-63
2022/04/28 05:45:58;;;;;;;37.10;13.73;;;;;;;;;;5064739;28;20027;-65
2022/04/28 05:48:24;;;;;;;27.42;13.25;;;;;;;;;;5066863;28;20024;-64
2022/04/28 05:50:49;;;;;;;32.25;14.35;;;;;;;;;;5068802;28;20013;-64
2022/04/28 05:53:14;;;;;;;26.52;13.45;;;;;;;;;;5068913;28;20024;-64
2022/04/28 05:55:40;;;;;;;23.52;10.40;;;;;;;;;;5067788;28;20020;-65
2022/04/28 05:58:05;;;;;;;31.80;13.60;;;;;;;;;;5068141;28;20020;-65
2022/04/28 06:00:31;;;;;;;32.88;13.65;;;;;;;;;;5068394;28;21284;-64
2022/04/28 06:02:57;;;;;;;31.05;13.32;;;;;;;;;;5068469;28;20024;-65
2022/04/28 06:05:22;;;;;;;33.00;14.68;;;;;;;;;;5067679;28;20027;-65
2022/04/28 06:07:47;;;;;;;27.88;13.93;;;;;;;;;;5069027;28;20028;-65
2022/04/28 06:10:13;;;;;;;30.08;15.73;;;;;;;;;;5066374;28;20028;-66
2022/04/28 06:12:38;;;;;;;29.65;15.35;;;;;;;;;;5068124;28;20021;-64
2022/04/28 06:15:04;;;;;;;26.08;14.30;;;;;;;;;;5068538;28;20020;-65
2022/04/28 06:17:29;;;;;;;27.38;14.02;;;;;;;;;;5067122;28;20269;-65
2022/04/28 06:19:54;;;;;;;28.50;12.40;;;;;;;;;;5069029;28;20388;-65
2022/04/28 06:22:19;;;;;;;38.55;15.95;;;;;;;;;;5068466;28;20077;-64
2022/04/28 06:24:49;;;;;;;28.67;14.60;;;;;;;;;;5068543;28;20059;-65
2022/04/28 06:27:14;;;;;;;42.42;16.42;;;;;;;;;;5066752;28;20074;-65
2022/04/28 06:29:39;;;;;;;33.40;15.83;;;;;;;;;;5068090;28;20028;-65
2022/04/28 06:32:05;;;;;;;30.97;16.63;;;;;;;;;;5066738;28;20342;-65
2022/04/28 06:34:30;;;;;;;37.45;17.15;;;;;;;;;;5067983;28;20281;-64
2022/04/28 06:36:56;;;;;;;32.77;14.63;;;;;;;;;;5066865;28;20094;-65
2022/04/28 06:39:21;;;;;;;33.93;15.50;;;;;;;;;;5066544;28;20357;-65
2022/04/28 06:41:46;;;;;;;35.60;16.77;;;;;;;;;;5067445;28;20281;-65
2022/04/28 06:44:11;;;;;;;29.30;16.25;;;;;;;;;;5067699;28;20286;-65
2022/04/28 06:46:36;;;;;;;30.30;15.47;;;;;;;;;;5068539;28;20032;-65
2022/04/28 06:49:01;;;;;;;33.57;14.90;;;;;;;;;;5067121;28;20278;-65
2022/04/28 06:51:27;;;;;;;29.52;15.48;;;;;;;;;;5067592;28;20259;-65
2022/04/28 06:53:52;;;;;;;32.93;15.10;;;;;;;;;;5068843;28;20017;-64
2022/04/28 06:56:17;;;;;;;34.90;15.57;;;;;;;;;;5068854;28;20302;-64
2022/04/28 06:58:42;;;;;;;34.17;15.88;;;;;;;;;;5065405;28;20612;-65
2022/04/28 07:01:08;;;;;;;33.35;16.70;;;;;;;;;;5064350;28;20028;-65
2022/04/28 07:03:33;;;;;;;30.80;16.47;;;;;;;;;;5066828;28;20037;-65
2022/04/28 07:05:58;;;;;;;34.80;16.58;;;;;;;;;;5063627;28;20306;-65
2022/04/28 07:08:23;;;;;;;29.00;15.43;;;;;;;;;;5062132;28;20480;-65
2022/04/28 07:10:49;;;;;;;32.65;17.00;;;;;;;;;;5066229;28;20270;-65
2022/04/28 07:13:14;;;;;;;28.10;16.65;;;;;;;;;;5070639;28;20025;-65
2022/04/28 07:15:39;;;;;;;26.65;14.98;;;;;;;;;;5069954;28;20017;-65
2022/04/28 07:18:05;;;;;;;25.90;16.33;;;;;;;;;;5070438;28;20392;-66
2022/04/28 07:20:31;;;;;;;28.63;16.02;;;;;;;;;;5070719;28;20150;-66
2022/04/28 07:22:59;;;;;;;29.77;15.45;;;;;;;;;;5070649;28;20013;-66
2022/04/28 07:25:24;;;;;;;25.50;14.95;;;;;;;;;;5071050;28;20094;-66
2022/04/28 07:27:49;;;;;;;22.23;15.40;;;;;;;;;;5071758;28;20103;-66
2022/04/28 07:30:14;;;;;;;24.97;15.07;;;;;;;;;;5071912;28;20476;-65
2022/04/28 07:32:40;;;;;;;21.00;13.63;;;;;;;;;;5071968;28;20052;-66
2022/04/28 07:35:05;;;;;;;25.75;15.02;;;;;;;;;;5071415;28;20020;-67
2022/04/28 07:37:31;;;;;;;21.65;15.32;;;;;;;;;;5070843;28;20017;-66
2022/04/28 07:39:56;;;;;;;27.07;15.47;;;;;;;;;;5071304;28;20074;-66
2022/04/28 07:42:21;;;;;;;26.35;15.18;;;;;;;;;;5069800;28;20480;-66
2022/04/28 07:44:46;;;;;;;22.17;14.93;;;;;;;;;;5072082;28;20054;-66
2022/04/28 07:47:12;;;;;;;23.83;15.40;;;;;;;;;;5072930;28;20028;-66
2022/04/28 07:49:37;;;;;;;26.70;15.97;;;;;;;;;;5069694;28;20283;-66
2022/04/28 07:52:02;;;;;;;20.73;14.77;;;;;;;;;;5073040;28;20257;-66
2022/04/28 07:54:27;;;;;;;28.30;16.25;;;;;;;;;;5071273;28;20496;-66
2022/04/28 07:56:53;;;;;;;27.90;16.93;;;;;;;;;;5070992;28;20032;-67
2022/04/28 07:59:18;;;;;;;28.47;15.97;;;;;;;;;;5071163;28;20107;-66
2022/04/28 08:01:43;;;;;;;25.20;16.80;;;;;;;;;;5072289;28;20016;-67
2022/04/28 08:04:08;;;;;;;21.97;17.10;;;;;;;;;;5070230;28;20369;-67
2022/04/28 08:06:34;;;;;;;25.10;16.02;;;;;;;;;;5069708;28;20349;-66
2022/04/28 08:08:59;;;;;;;21.25;16.00;;;;;;;;;;5071385;28;20013;-67
2022/04/28 08:11:24;;;;;;;24.10;15.93;;;;;;;;;;5071862;28;20024;-66
2022/04/28 08:13:49;;;;;;;22.07;16.10;;;;;;;;;;5071241;28;20835;-66
2022/04/28 08:16:14;;;;;;;21.45;15.55;;;;;;;;;;5071061;28;20813;-66
2022/04/28 08:18:40;;;;;;;28.73;17.10;;;;;;;;;;5067676;28;20027;-66
2022/04/28 08:21:08;;;;;;;26.83;17.80;;;;;;;;;;5070105;28;20465;-66
2022/04/28 08:23:33;;;;;;;33.95;17.92;;;;;;;;;;5071858;28;20691;-66
2022/04/28 08:25:59;;;;;;;25.02;17.17;;;;;;;;;;5069158;28;20107;-66
2022/04/28 08:28:25;;;;;;;28.92;17.25;;;;;;;;;;5070454;28;20476;-65
2022/04/28 08:30:50;;;;;;;22.73;16.37;;;;;;;;;;5069821;28;20156;-66
2022/04/28 08:33:15;;;;;;;25.15;16.92;;;;;;;;;;5069449;28;20028;-66
2022/04/28 08:35:40;;;;;;;23.63;16.37;;;;;;;;;;5071971;28;20070;-66
2022/04/28 08:38:05;;;;;;;25.43;14.63;;;;;;;;;;5069937;28;20358;-66
2022/04/28 08:40:31;;;;;;;34.63;15.05;;;;;;;;;;5071665;28;20273;-66
2022/04/28 08:42:58;;;;;;;27.02;15.90;;;;;;;;;;5055972;28;20055;-66
2022/04/28 08:45:28;;;;;;;31.23;16.48;;;;;;;;;;5051345;28;20234;-66
2022/04/28 08:47:56;;;;;;;28.67;15.73;;;;;;;;;;5069882;28;20023;-64
2022/04/28 08:50:22;;;;;;;27.17;15.05;;;;;;;;;;5066975;28;20133;-66
2022/04/28 08:52:47;;;;;;;32.60;16.75;;;;;;;;;;5068428;28;20016;-66
2022/04/28 08:55:14;;;;;;;24.90;16.83;;;;;;;;;;5082226;28;20052;-66
2022/04/28 08:57:40;;;;;;;31.75;16.17;;;;;;;;;;5079468;28;20473;-66
2022/04/28 09:00:05;;;;;;;27.90;15.75;;;;;;;;;;5070169;28;20040;-66
2022/04/28 09:02:31;;;;;;;30.85;16.95;;;;;;;;;;5068682;28;20020;-66
2022/04/28 09:05:04;;;;;;;25.55;15.18;;;;;;;;;;5071314;28;20305;-66
2022/04/28 09:07:48;;;;;;;30.63;14.38;;;;;;;;;;5068977;28;20093;-66
2022/04/28 09:10:27;;;;;;;28.17;14.25;;;;;;;;;;5068986;28;20031;-67
2022/04/28 09:14:09;;;;;;;26.48;14.68;;;;;;;;;;5070629;28;20046;-66
2022/04/28 09:15:45;;;;;;;27.10;14.25;;;;;;;;;;5067445;28;20142;-66
2022/04/28 09:18:10;;;;;;;24.23;15.35;;;;;;;;;;5070059;28;20036;-66
2022/04/28 09:20:36;;;;;;;30.57;14.10;;;;;;;;;;5070862;28;20063;-66
2022/04/28 09:23:01;;;;;;;23.55;13.85;;;;;;;;;;5069341;28;20698;-66
2022/04/28 09:25:30;;;;;;;29.83;13.88;;;;;;;;;;5066317;28;20020;-66
2022/04/28 09:27:56;;;;;;;28.27;14.05;;;;;;;;;;5067661;28;20107;-65
2022/04/28 09:30:24;;;;;;;23.83;14.10;;;;;;;;;;5067116;28;20107;-65
2022/04/28 09:32:53;;;;;;;23.73;14.18;;;;;;;;;;5064351;28;20153;-65
2022/04/28 09:35:19;;;;;;;24.03;13.30;;;;;;;;;;5063673;28;20021;-65
2022/04/28 09:37:44;;;;;;;22.90;12.98;;;;;;;;;;5068911;28;20039;-65
2022/04/28 09:42:54;;;;;;;34.72;15.65;;;;;;;;;;5070218;28;20301;-65
2022/04/28 09:45:21;;;;;;;23.45;12.10;;;;;;;;;;5065945;28;20024;-65
2022/04/28 09:47:46;;;;;;;16.58;10.02;;;;;;;;;;5067549;28;20028;-65
2022/04/28 09:50:12;;;;;;;16.27;10.57;;;;;;;;;;5066056;28;20435;-65
2022/04/28 09:52:38;;;;;;;15.45;10.98;;;;;;;;;;5065975;28;20055;-65
2022/04/28 09:55:03;;;;;;;16.30;10.85;;;;;;;;;;5068205;28;20063;-65
2022/04/28 09:57:29;;;;;;;16.48;10.93;;;;;;;;;;5066315;28;20016;-66
2022/04/28 09:59:55;;;;;;;18.98;9.38;;;;;;;;;;5068604;28;20016;-65
2022/04/28 10:02:21;;;;;;;18.00;9.77;;;;;;;;;;5060580;28;20028;-65
2022/04/28 10:04:47;;;;;;;17.23;9.85;;;;;;;;;;5058656;28;20024;-65
2022/04/28 10:07:13;;;;;;;16.15;9.50;;;;;;;;;;5051384;28;20366;-65
2022/04/28 10:09:39;;;;;;;18.58;10.13;;;;;;;;;;5067980;28;20021;-65
2022/04/28 10:12:06;;;;;;;15.40;10.52;;;;;;;;;;5068040;28;20476;-65
2022/04/28 10:14:33;;;;;;;25.05;12.65;;;;;;;;;;5067626;28;20093;-65
2022/04/28 10:17:00;;;;;;;17.27;10.30;;;;;;;;;;5064566;28;20745;-64
2022/04/28 10:19:29;;;;;;;20.92;9.80;;;;;;;;;;5067070;28;20088;-64
2022/04/28 10:22:03;;;;;;;15.45;9.55;;;;;;;;;;5064469;28;20048;-65
2022/04/28 10:32:57;;;;;;;18.63;11.40;;;;;;;;;;5045029;28;20428;-72
2022/04/28 10:35:41;;;;;;;18.38;9.80;;;;;;;;;;5047980;28;20021;-72
2022/04/28 10:38:10;;;;;;;17.13;9.38;;;;;;;;;;5047490;28;20028;-69
2022/04/28 10:40:36;;;;;;;17.30;10.95;;;;;;;;;;5045992;28;20028;-70
2022/04/28 10:43:01;;;;;;;20.67;10.73;;;;;;;;;;5046775;28;20104;-69
2022/04/28 10:45:28;;;;;;;21.10;10.55;;;;;;;;;;5042454;28;20125;-72
2022/04/28 10:48:23;;;;;;;20.08;11.43;;;;;;;;;;5048460;28;20019;-69
2022/04/28 10:51:11;;;;;;;18.92;10.40;;;;;;;;;;5050683;28;20493;-71
2022/04/28 10:53:55;;;;;;;19.50;10.90;;;;;;;;;;5036463;28;20040;-70
2022/04/28 10:56:20;;;;;;;19.48;11.25;;;;;;;;;;5049935;28;20068;-72
2022/04/28 10:58:45;;;;;;;16.63;10.97;;;;;;;;;;5047721;28;20059;-70
2022/04/28 11:01:23;;;;;;;19.27;12.07;;;;;;;;;;5051361;28;20363;-70
2022/04/28 11:03:48;;;;;;;22.35;11.68;;;;;;;;;;5052118;28;20770;-72
2022/04/28 11:06:15;;;;;;;29.80;12.57;;;;;;;;;;5051340;28;20033;-69
2022/04/28 11:08:53;;;;;;;21.15;12.38;;;;;;;;;;5052428;28;20033;-70
2022/04/28 11:11:18;;;;;;;28.15;12.45;;;;;;;;;;5038062;28;20020;-70
2022/04/28 11:13:46;;;;;;;16.52;10.82;;;;;;;;;;5051874;28;20029;-70
2022/04/28 11:16:12;;;;;;;21.85;11.98;;;;;;;;;;5051273;28;20032;-71
2022/04/28 11:18:37;;;;;;;21.42;11.07;;;;;;;;;;5052672;28;20021;-70
2022/04/28 11:21:03;;;;;;;15.40;10.93;;;;;;;;;;5051782;28;20358;-70
2022/04/28 11:23:31;;;;;;;19.50;10.93;;;;;;;;;;5050531;28;20025;-70
2022/04/28 11:25:57;;;;;;;20.15;11.02;;;;;;;;;;5046769;28;20533;-71
2022/04/28 11:28:23;;;;;;;21.05;11.68;;;;;;;;;;5045545;28;20108;-70
2022/04/28 11:30:48;;;;;;;20.83;11.35;;;;;;;;;;5045033;28;20032;-70
2022/04/28 11:33:13;;;;;;;16.83;10.68;;;;;;;;;;5049626;28;20064;-72
2022/04/28 11:35:40;;;;;;;18.00;10.07;;;;;;;;;;5047770;28;20025;-70
2022/04/28 11:38:05;;;;;;;23.13;10.23;;;;;;;;;;5049687;28;20025;-70
2022/04/28 11:40:33;;;;;;;21.20;10.50;;;;;;;;;;5051323;28;20025;-70
2022/04/28 11:43:00;;;;;;;20.48;11.68;;;;;;;;;;5047907;28;20629;-69
2022/04/28 11:45:26;;;;;;;19.80;10.73;;;;;;;;;;5051891;28;20396;-70
2022/04/28 11:47:53;;;;;;;22.50;10.55;;;;;;;;;;5050073;28;20025;-69
2022/04/28 11:50:32;;;;;;;22.20;11.35;;;;;;;;;;5051307;28;20028;-69
2022/04/28 11:53:07;;;;;;;14.80;10.02;;;;;;;;;;5050901;28;20017;-69
2022/04/28 11:55:35;;;;;;;22.85;12.05;;;;;;;;;;5045260;28;20017;-69
2022/04/28 11:58:01;;;;;;;17.27;9.63;;;;;;;;;;5051007;28;20023;-71
2022/04/28 12:00:26;;;;;;;17.20;9.75;;;;;;;;;;5051212;28;20025;-69
2022/04/28 12:02:53;;;;;;;16.35;10.63;;;;;;;;;;5051549;28;20104;-69
2022/04/28 12:05:21;;;;;;;19.58;11.30;;;;;;;;;;5048533;28;20033;-69
2022/04/28 12:07:51;;;;;;;26.88;10.73;;;;;;;;;;5049549;28;20469;-71
2022/04/28 12:15:58;;;;;;;21.33;12.20;;;;;;;;;;5051259;28;20071;-70
2022/04/28 12:21:23;;;;;;;20.02;12.73;;;;;;;;;;5048803;28;20098;-70
2022/04/28 12:23:50;;;;;;;23.25;12.35;;;;;;;;;;5029639;28;20017;-70
2022/04/28 12:26:19;;;;;;;19.10;11.10;;;;;;;;;;5044315;28;20033;-70
2022/04/28 12:28:44;;;;;;;23.02;11.63;;;;;;;;;;5048032;28;20025;-70
2022/04/28 12:31:14;;;;;;;21.25;11.25;;;;;;;;;;5050597;28;20032;-71
2022/04/28 12:33:40;;;;;;;17.80;11.13;;;;;;;;;;5049279;28;20024;-70
2022/04/28 12:36:13;;;;;;;19.20;11.68;;;;;;;;;;5050357;28;20029;-70
2022/04/28 12:38:43;;;;;;;23.85;11.55;;;;;;;;;;5039283;28;20507;-70
2022/04/28 12:41:12;;;;;;;21.95;12.23;;;;;;;;;;5049662;28;20535;-70
2022/04/28 12:43:38;;;;;;;24.17;12.23;;;;;;;;;;5050133;28;20051;-69
2022/04/28 12:46:05;;;;;;;21.00;12.25;;;;;;;;;;5049893;28;20051;-70
2022/04/28 12:48:31;;;;;;;20.25;10.27;;;;;;;;;;5048157;28;20021;-70
2022/04/28 12:51:10;;;;;;;19.77;10.45;;;;;;;;;;5046511;28;20023;-72
2022/04/28 12:53:35;;;;;;;21.85;10.25;;;;;;;;;;5050605;28;20084;-69
2022/04/28 12:56:02;;;;;;;24.25;10.93;;;;;;;;;;5049536;28;20016;-69
2022/04/28 12:58:27;;;;;;;24.52;11.35;;;;;;;;;;5046999;28;20091;-69
2022/04/28 13:00:53;;;;;;;23.13;11.07;;;;;;;;;;5051073;28;20043;-70
2022/04/28 13:03:27;;;;;;;20.07;10.87;;;;;;;;;;5049377;28;20279;-70
2022/04/28 13:05:53;;;;;;;17.92;9.82;;;;;;;;;;5049125;28;20473;-72
2022/04/28 13:08:18;;;;;;;18.33;10.07;;;;;;;;;;5048548;28;20087;-69
2022/04/28 13:10:43;;;;;;;19.87;9.93;;;;;;;;;;5048422;28;20033;-70
2022/04/28 13:13:08;;;;;;;18.10;10.73;;;;;;;;;;5045944;28;20768;-69
2022/04/28 13:15:34;;;;;;;17.27;9.60;;;;;;;;;;5047759;28;20021;-72
2022/04/28 13:17:59;;;;;;;21.50;9.90;;;;;;;;;;5047746;28;20312;-69
2022/04/28 13:20:24;;;;;;;18.70;8.77;;;;;;;;;;5049370;28;20267;-71
2022/04/28 13:22:49;;;;;;;17.40;8.43;;;;;;;;;;5046769;28;20272;-69
2022/04/28 13:25:16;;;;;;;11.67;8.03;;;;;;;;;;5047976;28;20033;-69
2022/04/28 13:27:41;;;;;;;20.75;9.30;;;;;;;;;;5047265;28;20126;-69
2022/04/28 13:30:07;;;;;;;15.40;9.95;;;;;;;;;;5034257;28;20127;-69
2022/04/28 13:32:32;;;;;;;18.67;8.48;;;;;;;;;;5048797;28;20456;-71
2022/04/28 13:34:57;;;;;;;17.77;8.37;;;;;;;;;;5046782;28;20028;-71
2022/04/28 13:37:22;;;;;;;18.03;8.50;;;;;;;;;;5048971;28;20267;-70
2022/04/28 13:39:48;;;;;;;15.80;8.10;;;;;;;;;;5048620;28;20337;-69
2022/04/28 13:42:13;;;;;;;19.38;7.85;;;;;;;;;;5048422;28;20359;-70
2022/04/28 13:44:39;;;;;;;16.20;8.63;;;;;;;;;;5048022;28;20367;-69
2022/04/28 13:47:04;;;;;;;18.17;8.32;;;;;;;;;;5047501;28;20036;-69
2022/04/28 13:49:30;;;;;;;13.10;7.45;;;;;;;;;;5037601;28;20028;-69
2022/04/28 13:51:55;;;;;;;16.83;7.73;;;;;;;;;;5047396;28;20017;-69
2022/04/28 13:54:20;;;;;;;12.87;6.43;;;;;;;;;;5045289;28;20272;-69
2022/04/28 13:56:45;;;;;;;12.93;6.70;;;;;;;;;;5048048;28;20849;-70
2022/04/28 13:59:11;;;;;;;14.23;7.47;;;;;;;;;;5045831;28;20483;-69
2022/04/28 14:01:37;;;;;;;15.18;7.55;;;;;;;;;;5048627;28;20082;-72
2022/04/28 14:04:03;;;;;;;22.20;8.15;;;;;;;;;;5046482;28;20032;-70
2022/04/28 14:06:28;;;;;;;14.98;8.23;;;;;;;;;;5046066;28;20017;-69
2022/04/28 14:08:53;;;;;;;14.47;7.37;;;;;;;;;;5046165;28;20528;-70
2022/04/28 14:11:18;;;;;;;17.77;7.45;;;;;;;;;;5040155;28;20279;-69
2022/04/28 14:13:44;;;;;;;19.47;8.50;;;;;;;;;;5045855;28;20503;-71
2022/04/28 14:16:09;;;;;;;13.63;7.47;;;;;;;;;;5047622;28;20286;-70
2022/04/28 14:18:34;;;;;;;14.33;7.23;;;;;;;;;;5046844;28;20067;-69
2022/04/28 14:20:59;;;;;;;12.45;7.50;;;;;;;;;;5049034;28;20724;-71
2022/04/28 14:23:25;;;;;;;16.75;8.15;;;;;;;;;;5047568;28;20703;-69
2022/04/28 14:25:51;;;;;;;16.42;7.07;;;;;;;;;;5047530;28;20382;-70
2022/04/28 14:28:17;;;;;;;18.25;7.72;;;;;;;;;;5046275;28;20036;-69
2022/04/28 14:30:43;;;;;;;13.25;7.10;;;;;;;;;;5046565;28;20013;-70
2022/04/28 14:33:08;;;;;;;16.75;7.90;;;;;;;;;;5046839;28;20420;-71
2022/04/28 14:35:34;;;;;;;15.63;7.25;;;;;;;;;;5051739;28;20040;-69
2022/04/28 14:37:59;;;;;;;15.68;8.15;;;;;;;;;;5047672;28;20142;-69
2022/04/28 14:40:24;;;;;;;15.52;7.32;;;;;;;;;;5048421;28;20017;-70
2022/04/28 14:42:51;;;;;;;14.52;6.53;;;;;;;;;;5047403;28;20025;-69
2022/04/28 14:45:17;;;;;;;18.13;8.13;;;;;;;;;;5046954;28;20021;-69
2022/04/28 14:47:42;;;;;;;14.38;7.05;;;;;;;;;;5046729;28;20028;-69
2022/04/28 14:52:52;;;;;;;15.77;6.90;;;;;;;;;;5045501;28;20048;-72
2022/04/28 14:55:17;;;;;;;23.45;7.93;;;;;;;;;;5044322;28;20457;-70